sensor_id;sensor_type;location;lat;lon;timestamp;P1;durP1;ratioP1;P2;durP2;ratioP2
11988;SDS011;6054;50.966;7.094;2023-04-03T00:00:36;2.87;;;1.70;;
11988;SDS011;6054;50.966;7.094;2023-04-03T00:03:05;3.27;;;1.63;;
11988;SDS011;6054;50.966;7.094;2023-04-03T00:05:31;2.42;;;1.65;;
11988;SDS011;6054;50.966;7.094;2023-04-03T00:07:58;2.43;;;1.90;;
11988;SDS011;6054;50.966;7.094;2023-04-03T00:10:26;2.88;;;1.60;;
11988;SDS011;6054;50.966;7.094;2023-04-03T00:12:53;2.37;;;1.40;;
11988;SDS011;6054;50.966;7.094;2023-04-03T00:15:20;4.77;;;1.90;;
11988;SDS011;6054;50.966;7.094;2023-04-03T00:17:47;3.80;;;1.77;;
11988;SDS011;6054;50.966;7.094;2023-04-03T00:20:15;3.45;;;1.67;;
11988;SDS011;6054;50.966;7.094;2023-04-03T00:22:42;5.05;;;1.70;;
11988;SDS011;6054;50.966;7.094;2023-04-03T00:25:09;2.10;;;1.70;;
11988;SDS011;6054;50.966;7.094;2023-04-03T00:27:36;3.72;;;1.60;;
11988;SDS011;6054;50.966;7.094;2023-04-03T00:30:04;1.50;;;1.40;;
11988;SDS011;6054;50.966;7.094;2023-04-03T00:32:33;2.65;;;1.48;;
11988;SDS011;6054;50.966;7.094;2023-04-03T00:35:00;1.60;;;1.50;;
11988;SDS011;6054;50.966;7.094;2023-04-03T00:37:28;3.47;;;1.60;;
11988;SDS011;6054;50.966;7.094;2023-04-03T00:39:55;3.13;;;1.45;;
11988;SDS011;6054;50.966;7.094;2023-04-03T00:42:22;1.48;;;1.38;;
11988;SDS011;6054;50.966;7.094;2023-04-03T00:48:06;1.90;;;1.80;;
11988;SDS011;6054;50.966;7.094;2023-04-03T00:50:36;1.95;;;1.45;;
11988;SDS011;6054;50.966;7.094;2023-04-03T00:53:07;2.70;;;1.80;;
11988;SDS011;6054;50.966;7.094;2023-04-03T00:55:37;2.70;;;1.90;;
11988;SDS011;6054;50.966;7.094;2023-04-03T00:58:05;4.43;;;1.60;;
11988;SDS011;6054;50.966;7.094;2023-04-03T01:00:33;2.20;;;1.30;;
11988;SDS011;6054;50.966;7.094;2023-04-03T01:03:03;2.23;;;1.47;;
11988;SDS011;6054;50.966;7.094;2023-04-03T01:05:30;1.80;;;1.70;;
11988;SDS011;6054;50.966;7.094;2023-04-03T01:07:56;3.43;;;1.70;;
11988;SDS011;6054;50.966;7.094;2023-04-03T01:10:26;2.17;;;1.40;;
11988;SDS011;6054;50.966;7.094;2023-04-03T01:12:53;3.40;;;1.93;;
11988;SDS011;6054;50.966;7.094;2023-04-03T01:15:20;1.60;;;1.50;;
11988;SDS011;6054;50.966;7.094;2023-04-03T01:17:49;2.50;;;1.57;;
11988;SDS011;6054;50.966;7.094;2023-04-03T01:20:24;2.37;;;1.30;;
11988;SDS011;6054;50.966;7.094;2023-04-03T01:23:14;4.10;;;1.50;;
11988;SDS011;6054;50.966;7.094;2023-04-03T01:25:53;4.43;;;1.63;;
11988;SDS011;6054;50.966;7.094;2023-04-03T01:28:22;1.70;;;1.60;;
11988;SDS011;6054;50.966;7.094;2023-04-03T01:30:51;1.87;;;1.70;;
11988;SDS011;6054;50.966;7.094;2023-04-03T01:33:22;3.90;;;1.60;;
11988;SDS011;6054;50.966;7.094;2023-04-03T01:35:49;1.33;;;1.23;;
11988;SDS011;6054;50.966;7.094;2023-04-03T01:38:16;1.80;;;1.43;;
11988;SDS011;6054;50.966;7.094;2023-04-03T01:40:43;2.17;;;1.30;;
11988;SDS011;6054;50.966;7.094;2023-04-03T01:43:11;2.70;;;1.60;;
11988;SDS011;6054;50.966;7.094;2023-04-03T01:45:37;2.77;;;1.83;;
11988;SDS011;6054;50.966;7.094;2023-04-03T01:48:04;2.13;;;1.40;;
11988;SDS011;6054;50.966;7.094;2023-04-03T01:50:33;1.97;;;1.63;;
11988;SDS011;6054;50.966;7.094;2023-04-03T01:52:59;4.77;;;1.80;;
11988;SDS011;6054;50.966;7.094;2023-04-03T01:55:26;3.53;;;1.67;;
11988;SDS011;6054;50.966;7.094;2023-04-03T01:57:53;2.83;;;1.40;;
11988;SDS011;6054;50.966;7.094;2023-04-03T02:00:20;2.77;;;1.80;;
11988;SDS011;6054;50.966;7.094;2023-04-03T02:02:47;3.87;;;1.63;;
11988;SDS011;6054;50.966;7.094;2023-04-03T02:05:14;1.60;;;1.50;;
11988;SDS011;6054;50.966;7.094;2023-04-03T02:07:42;1.70;;;1.60;;
11988;SDS011;6054;50.966;7.094;2023-04-03T02:10:09;2.87;;;1.70;;
11988;SDS011;6054;50.966;7.094;2023-04-03T02:12:36;1.80;;;1.67;;
11988;SDS011;6054;50.966;7.094;2023-04-03T02:15:03;2.23;;;1.50;;
11988;SDS011;6054;50.966;7.094;2023-04-03T02:17:30;2.37;;;1.40;;
11988;SDS011;6054;50.966;7.094;2023-04-03T02:19:57;2.37;;;1.57;;
11988;SDS011;6054;50.966;7.094;2023-04-03T02:22:24;3.20;;;1.60;;
11988;SDS011;6054;50.966;7.094;2023-04-03T02:24:52;1.60;;;1.50;;
11988;SDS011;6054;50.966;7.094;2023-04-03T02:27:19;2.70;;;1.50;;
11988;SDS011;6054;50.966;7.094;2023-04-03T02:29:46;4.23;;;1.57;;
11988;SDS011;6054;50.966;7.094;2023-04-03T02:32:13;2.67;;;1.50;;
11988;SDS011;6054;50.966;7.094;2023-04-03T02:34:40;2.67;;;2.00;;
11988;SDS011;6054;50.966;7.094;2023-04-03T02:37:06;1.50;;;1.40;;
11988;SDS011;6054;50.966;7.094;2023-04-03T02:39:33;1.87;;;1.67;;
11988;SDS011;6054;50.966;7.094;2023-04-03T02:42:01;4.80;;;1.80;;
11988;SDS011;6054;50.966;7.094;2023-04-03T02:44:28;2.40;;;1.63;;
11988;SDS011;6054;50.966;7.094;2023-04-03T02:46:55;2.90;;;1.70;;
11988;SDS011;6054;50.966;7.094;2023-04-03T02:49:22;1.70;;;1.60;;
11988;SDS011;6054;50.966;7.094;2023-04-03T02:51:48;2.50;;;1.70;;
11988;SDS011;6054;50.966;7.094;2023-04-03T02:54:15;4.70;;;1.50;;
11988;SDS011;6054;50.966;7.094;2023-04-03T02:56:42;1.87;;;1.50;;
11988;SDS011;6054;50.966;7.094;2023-04-03T02:59:10;1.70;;;1.60;;
11988;SDS011;6054;50.966;7.094;2023-04-03T03:01:37;2.37;;;1.60;;
11988;SDS011;6054;50.966;7.094;2023-04-03T03:04:04;2.73;;;1.70;;
11988;SDS011;6054;50.966;7.094;2023-04-03T03:06:31;1.77;;;1.60;;
11988;SDS011;6054;50.966;7.094;2023-04-03T03:08:57;2.13;;;1.60;;
11988;SDS011;6054;50.966;7.094;2023-04-03T03:11:24;3.47;;;2.00;;
11988;SDS011;6054;50.966;7.094;2023-04-03T03:13:51;1.93;;;1.57;;
11988;SDS011;6054;50.966;7.094;2023-04-03T03:16:19;4.73;;;1.90;;
11988;SDS011;6054;50.966;7.094;2023-04-03T03:18:46;2.90;;;1.83;;
11988;SDS011;6054;50.966;7.094;2023-04-03T03:21:13;2.83;;;1.93;;
11988;SDS011;6054;50.966;7.094;2023-04-03T03:23:40;3.00;;;2.13;;
11988;SDS011;6054;50.966;7.094;2023-04-03T03:26:08;2.40;;;1.90;;
11988;SDS011;6054;50.966;7.094;2023-04-03T03:28:36;1.53;;;1.43;;
11988;SDS011;6054;50.966;7.094;2023-04-03T03:31:04;2.47;;;1.60;;
11988;SDS011;6054;50.966;7.094;2023-04-03T03:33:33;3.87;;;1.77;;
11988;SDS011;6054;50.966;7.094;2023-04-03T03:36:00;3.00;;;1.60;;
11988;SDS011;6054;50.966;7.094;2023-04-03T03:38:27;4.03;;;1.50;;
11988;SDS011;6054;50.966;7.094;2023-04-03T03:40:53;2.53;;;1.60;;
11988;SDS011;6054;50.966;7.094;2023-04-03T03:43:20;2.53;;;1.80;;
11988;SDS011;6054;50.966;7.094;2023-04-03T03:45:49;3.57;;;2.17;;
11988;SDS011;6054;50.966;7.094;2023-04-03T03:48:17;2.63;;;1.63;;
11988;SDS011;6054;50.966;7.094;2023-04-03T03:50:45;4.00;;;2.20;;
11988;SDS011;6054;50.966;7.094;2023-04-03T03:53:12;1.83;;;1.67;;
11988;SDS011;6054;50.966;7.094;2023-04-03T03:55:39;3.83;;;1.70;;
11988;SDS011;6054;50.966;7.094;2023-04-03T03:58:06;4.47;;;1.50;;
11988;SDS011;6054;50.966;7.094;2023-04-03T04:00:33;3.60;;;1.90;;
11988;SDS011;6054;50.966;7.094;2023-04-03T04:03:00;3.80;;;1.50;;
11988;SDS011;6054;50.966;7.094;2023-04-03T04:05:27;2.53;;;1.77;;
11988;SDS011;6054;50.966;7.094;2023-04-03T04:07:55;4.63;;;1.70;;
11988;SDS011;6054;50.966;7.094;2023-04-03T04:10:22;5.07;;;1.87;;
11988;SDS011;6054;50.966;7.094;2023-04-03T04:12:49;1.50;;;1.40;;
11988;SDS011;6054;50.966;7.094;2023-04-03T04:15:16;2.10;;;1.50;;
11988;SDS011;6054;50.966;7.094;2023-04-03T04:17:43;1.77;;;1.60;;
11988;SDS011;6054;50.966;7.094;2023-04-03T04:20:10;1.63;;;1.40;;
11988;SDS011;6054;50.966;7.094;2023-04-03T04:22:37;3.67;;;1.47;;
11988;SDS011;6054;50.966;7.094;2023-04-03T04:25:06;1.73;;;1.63;;
11988;SDS011;6054;50.966;7.094;2023-04-03T04:27:33;4.03;;;1.77;;
11988;SDS011;6054;50.966;7.094;2023-04-03T04:30:00;2.37;;;1.10;;
11988;SDS011;6054;50.966;7.094;2023-04-03T04:32:27;3.60;;;2.30;;
11988;SDS011;6054;50.966;7.094;2023-04-03T04:34:54;2.73;;;1.67;;
11988;SDS011;6054;50.966;7.094;2023-04-03T04:37:21;3.93;;;1.67;;
11988;SDS011;6054;50.966;7.094;2023-04-03T04:39:48;2.63;;;1.70;;
11988;SDS011;6054;50.966;7.094;2023-04-03T04:42:16;1.57;;;1.47;;
11988;SDS011;6054;50.966;7.094;2023-04-03T04:44:42;2.77;;;1.40;;
11988;SDS011;6054;50.966;7.094;2023-04-03T04:47:09;2.57;;;1.40;;
11988;SDS011;6054;50.966;7.094;2023-04-03T04:49:36;2.47;;;1.53;;
11988;SDS011;6054;50.966;7.094;2023-04-03T04:52:03;4.13;;;1.63;;
11988;SDS011;6054;50.966;7.094;2023-04-03T04:54:30;6.40;;;1.63;;
11988;SDS011;6054;50.966;7.094;2023-04-03T04:56:57;2.80;;;1.63;;
11988;SDS011;6054;50.966;7.094;2023-04-03T04:59:25;2.73;;;1.30;;
11988;SDS011;6054;50.966;7.094;2023-04-03T05:01:52;4.53;;;1.47;;
11988;SDS011;6054;50.966;7.094;2023-04-03T05:04:18;2.40;;;1.30;;
11988;SDS011;6054;50.966;7.094;2023-04-03T05:06:45;4.20;;;1.60;;
11988;SDS011;6054;50.966;7.094;2023-04-03T05:09:12;2.53;;;1.40;;
11988;SDS011;6054;50.966;7.094;2023-04-03T05:11:39;2.87;;;1.67;;
11988;SDS011;6054;50.966;7.094;2023-04-03T05:14:06;2.23;;;1.50;;
11988;SDS011;6054;50.966;7.094;2023-04-03T05:16:34;4.33;;;1.40;;
11988;SDS011;6054;50.966;7.094;2023-04-03T05:19:01;3.13;;;1.40;;
11988;SDS011;6054;50.966;7.094;2023-04-03T05:21:28;2.93;;;1.60;;
11988;SDS011;6054;50.966;7.094;2023-04-03T05:23:57;3.40;;;1.43;;
11988;SDS011;6054;50.966;7.094;2023-04-03T05:26:24;3.30;;;1.37;;
11988;SDS011;6054;50.966;7.094;2023-04-03T05:28:51;2.60;;;1.30;;
11988;SDS011;6054;50.966;7.094;2023-04-03T05:31:18;3.43;;;1.80;;
11988;SDS011;6054;50.966;7.094;2023-04-03T05:33:46;1.63;;;1.30;;
11988;SDS011;6054;50.966;7.094;2023-04-03T05:36:13;3.13;;;1.53;;
11988;SDS011;6054;50.966;7.094;2023-04-03T05:38:40;4.77;;;1.60;;
11988;SDS011;6054;50.966;7.094;2023-04-03T05:41:07;1.30;;;1.20;;
11988;SDS011;6054;50.966;7.094;2023-04-03T05:43:33;2.00;;;1.23;;
11988;SDS011;6054;50.966;7.094;2023-04-03T05:46:02;2.77;;;1.50;;
11988;SDS011;6054;50.966;7.094;2023-04-03T05:48:29;4.00;;;1.10;;
11988;SDS011;6054;50.966;7.094;2023-04-03T05:50:57;1.97;;;1.23;;
11988;SDS011;6054;50.966;7.094;2023-04-03T05:53:25;4.23;;;1.50;;
11988;SDS011;6054;50.966;7.094;2023-04-03T05:55:54;3.13;;;1.40;;
11988;SDS011;6054;50.966;7.094;2023-04-03T05:58:21;3.63;;;1.50;;
11988;SDS011;6054;50.966;7.094;2023-04-03T06:00:47;1.50;;;1.10;;
11988;SDS011;6054;50.966;7.094;2023-04-03T06:03:14;5.07;;;1.67;;
11988;SDS011;6054;50.966;7.094;2023-04-03T06:05:41;2.93;;;1.50;;
11988;SDS011;6054;50.966;7.094;2023-04-03T06:08:09;2.60;;;1.27;;
11988;SDS011;6054;50.966;7.094;2023-04-03T06:10:36;4.70;;;1.30;;
11988;SDS011;6054;50.966;7.094;2023-04-03T06:13:03;3.23;;;1.37;;
11988;SDS011;6054;50.966;7.094;2023-04-03T06:15:30;4.30;;;1.60;;
11988;SDS011;6054;50.966;7.094;2023-04-03T06:17:56;1.77;;;1.30;;
11988;SDS011;6054;50.966;7.094;2023-04-03T06:20:23;2.67;;;1.37;;
11988;SDS011;6054;50.966;7.094;2023-04-03T06:22:50;5.17;;;1.50;;
11988;SDS011;6054;50.966;7.094;2023-04-03T06:25:18;2.27;;;1.43;;
11988;SDS011;6054;50.966;7.094;2023-04-03T06:27:46;2.73;;;1.30;;
11988;SDS011;6054;50.966;7.094;2023-04-03T06:30:13;2.87;;;1.03;;
11988;SDS011;6054;50.966;7.094;2023-04-03T06:32:40;4.00;;;1.30;;
11988;SDS011;6054;50.966;7.094;2023-04-03T06:35:08;2.87;;;1.13;;
11988;SDS011;6054;50.966;7.094;2023-04-03T06:37:35;2.80;;;1.43;;
11988;SDS011;6054;50.966;7.094;2023-04-03T06:40:02;3.13;;;1.53;;
11988;SDS011;6054;50.966;7.094;2023-04-03T06:42:31;5.17;;;1.33;;
11988;SDS011;6054;50.966;7.094;2023-04-03T06:44:58;4.57;;;1.50;;
11988;SDS011;6054;50.966;7.094;2023-04-03T06:47:25;4.33;;;1.60;;
11988;SDS011;6054;50.966;7.094;2023-04-03T06:49:52;1.73;;;1.50;;
11988;SDS011;6054;50.966;7.094;2023-04-03T06:52:18;2.93;;;1.40;;
11988;SDS011;6054;50.966;7.094;2023-04-03T06:54:45;1.53;;;1.37;;
11988;SDS011;6054;50.966;7.094;2023-04-03T06:57:12;2.80;;;1.40;;
11988;SDS011;6054;50.966;7.094;2023-04-03T06:59:41;3.90;;;1.33;;
11988;SDS011;6054;50.966;7.094;2023-04-03T07:02:09;3.27;;;1.40;;
11988;SDS011;6054;50.966;7.094;2023-04-03T07:04:37;2.60;;;1.13;;
11988;SDS011;6054;50.966;7.094;2023-04-03T07:07:04;1.83;;;1.27;;
11988;SDS011;6054;50.966;7.094;2023-04-03T07:09:31;2.03;;;1.23;;
11988;SDS011;6054;50.966;7.094;2023-04-03T07:11:58;5.20;;;1.50;;
11988;SDS011;6054;50.966;7.094;2023-04-03T07:14:25;2.30;;;1.20;;
11988;SDS011;6054;50.966;7.094;2023-04-03T07:16:53;3.73;;;1.47;;
11988;SDS011;6054;50.966;7.094;2023-04-03T07:19:19;2.00;;;1.30;;
11988;SDS011;6054;50.966;7.094;2023-04-03T07:21:46;4.67;;;1.60;;
11988;SDS011;6054;50.966;7.094;2023-04-03T07:24:13;3.10;;;1.35;;
11988;SDS011;6054;50.966;7.094;2023-04-03T07:26:40;2.00;;;1.10;;
11988;SDS011;6054;50.966;7.094;2023-04-03T07:29:07;5.47;;;1.50;;
11988;SDS011;6054;50.966;7.094;2023-04-03T07:31:34;2.83;;;1.25;;
11988;SDS011;6054;50.966;7.094;2023-04-03T07:34:02;3.50;;;1.47;;
11988;SDS011;6054;50.966;7.094;2023-04-03T07:36:29;2.55;;;1.13;;
11988;SDS011;6054;50.966;7.094;2023-04-03T07:38:58;2.95;;;1.30;;
11988;SDS011;6054;50.966;7.094;2023-04-03T07:41:25;2.55;;;1.48;;
11988;SDS011;6054;50.966;7.094;2023-04-03T07:43:51;1.95;;;1.23;;
11988;SDS011;6054;50.966;7.094;2023-04-03T07:46:19;1.83;;;1.33;;
11988;SDS011;6054;50.966;7.094;2023-04-03T07:48:46;3.30;;;1.40;;
11988;SDS011;6054;50.966;7.094;2023-04-03T07:51:14;1.52;;;1.05;;
11988;SDS011;6054;50.966;7.094;2023-04-03T07:53:41;3.45;;;1.25;;
11988;SDS011;6054;50.966;7.094;2023-04-03T07:56:08;3.27;;;1.27;;
11988;SDS011;6054;50.966;7.094;2023-04-03T07:58:35;2.40;;;1.52;;
11988;SDS011;6054;50.966;7.094;2023-04-03T08:01:02;2.38;;;1.30;;
11988;SDS011;6054;50.966;7.094;2023-04-03T08:03:29;2.97;;;1.20;;
11988;SDS011;6054;50.966;7.094;2023-04-03T08:06:00;2.25;;;1.30;;
11988;SDS011;6054;50.966;7.094;2023-04-03T08:08:30;2.88;;;1.30;;
11988;SDS011;6054;50.966;7.094;2023-04-03T08:10:58;5.15;;;1.30;;
11988;SDS011;6054;50.966;7.094;2023-04-03T08:13:30;3.03;;;1.38;;
11988;SDS011;6054;50.966;7.094;2023-04-03T08:15:57;2.28;;;1.13;;
11988;SDS011;6054;50.966;7.094;2023-04-03T08:18:24;2.65;;;1.27;;
11988;SDS011;6054;50.966;7.094;2023-04-03T08:20:51;1.85;;;1.25;;
11988;SDS011;6054;50.966;7.094;2023-04-03T08:23:18;1.63;;;1.10;;
11988;SDS011;6054;50.966;7.094;2023-04-03T08:25:47;2.08;;;1.15;;
11988;SDS011;6054;50.966;7.094;2023-04-03T08:28:14;1.65;;;0.98;;
11988;SDS011;6054;50.966;7.094;2023-04-03T08:30:40;1.33;;;1.10;;
11988;SDS011;6054;50.966;7.094;2023-04-03T08:33:08;4.50;;;1.27;;
11988;SDS011;6054;50.966;7.094;2023-04-03T08:35:37;3.00;;;0.95;;
11988;SDS011;6054;50.966;7.094;2023-04-03T08:38:05;1.73;;;0.88;;
11988;SDS011;6054;50.966;7.094;2023-04-03T08:40:32;1.40;;;0.90;;
11988;SDS011;6054;50.966;7.094;2023-04-03T08:43:03;3.97;;;1.00;;
11988;SDS011;6054;50.966;7.094;2023-04-03T08:45:49;1.98;;;0.80;;
11988;SDS011;6054;50.966;7.094;2023-04-03T08:48:19;2.75;;;0.85;;
11988;SDS011;6054;50.966;7.094;2023-04-03T08:50:48;1.55;;;1.00;;
11988;SDS011;6054;50.966;7.094;2023-04-03T08:53:20;1.15;;;0.88;;
11988;SDS011;6054;50.966;7.094;2023-04-03T08:55:51;1.17;;;0.80;;
11988;SDS011;6054;50.966;7.094;2023-04-03T08:58:22;1.23;;;0.82;;
11988;SDS011;6054;50.966;7.094;2023-04-03T09:00:52;2.17;;;1.00;;
11988;SDS011;6054;50.966;7.094;2023-04-03T09:03:23;3.15;;;1.05;;
11988;SDS011;6054;50.966;7.094;2023-04-03T09:05:52;4.55;;;0.90;;
11988;SDS011;6054;50.966;7.094;2023-04-03T09:08:23;1.48;;;0.70;;
11988;SDS011;6054;50.966;7.094;2023-04-03T09:10:56;1.77;;;0.95;;
11988;SDS011;6054;50.966;7.094;2023-04-03T09:13:33;3.15;;;1.00;;
11988;SDS011;6054;50.966;7.094;2023-04-03T09:16:12;2.20;;;0.77;;
11988;SDS011;6054;50.966;7.094;2023-04-03T09:18:48;3.92;;;0.88;;
11988;SDS011;6054;50.966;7.094;2023-04-03T09:21:24;3.08;;;1.20;;
11988;SDS011;6054;50.966;7.094;2023-04-03T09:23:58;3.90;;;1.00;;
11988;SDS011;6054;50.966;7.094;2023-04-03T09:26:28;2.92;;;1.02;;
11988;SDS011;6054;50.966;7.094;2023-04-03T09:29:02;0.88;;;0.85;;
11988;SDS011;6054;50.966;7.094;2023-04-03T09:31:35;1.85;;;1.10;;
11988;SDS011;6054;50.966;7.094;2023-04-03T09:34:05;2.47;;;0.93;;
11988;SDS011;6054;50.966;7.094;2023-04-03T09:36:37;1.30;;;0.82;;
11988;SDS011;6054;50.966;7.094;2023-04-03T09:39:05;2.38;;;1.10;;
11988;SDS011;6054;50.966;7.094;2023-04-03T09:41:35;1.67;;;1.00;;
11988;SDS011;6054;50.966;7.094;2023-04-03T09:44:04;3.20;;;1.00;;
11988;SDS011;6054;50.966;7.094;2023-04-03T09:46:46;2.67;;;1.10;;
11988;SDS011;6054;50.966;7.094;2023-04-03T09:49:13;1.50;;;0.88;;
11988;SDS011;6054;50.966;7.094;2023-04-03T09:51:40;2.85;;;0.90;;
11988;SDS011;6054;50.966;7.094;2023-04-03T09:57:04;1.13;;;0.88;;
11988;SDS011;6054;50.966;7.094;2023-04-03T09:59:35;4.90;;;1.25;;
11988;SDS011;6054;50.966;7.094;2023-04-03T10:02:07;2.55;;;0.80;;
11988;SDS011;6054;50.966;7.094;2023-04-03T10:04:49;1.80;;;0.85;;
11988;SDS011;6054;50.966;7.094;2023-04-03T10:07:26;0.88;;;0.63;;
11988;SDS011;6054;50.966;7.094;2023-04-03T10:09:55;1.83;;;1.15;;
11988;SDS011;6054;50.966;7.094;2023-04-03T10:12:23;1.23;;;1.00;;
11988;SDS011;6054;50.966;7.094;2023-04-03T10:14:55;0.90;;;0.68;;
11988;SDS011;6054;50.966;7.094;2023-04-03T10:17:26;1.60;;;0.75;;
11988;SDS011;6054;50.966;7.094;2023-04-03T10:20:07;2.28;;;0.75;;
11988;SDS011;6054;50.966;7.094;2023-04-03T10:22:49;1.55;;;0.93;;
11988;SDS011;6054;50.966;7.094;2023-04-03T10:25:24;3.70;;;0.70;;
11988;SDS011;6054;50.966;7.094;2023-04-03T10:27:58;1.35;;;0.82;;
11988;SDS011;6054;50.966;7.094;2023-04-03T10:30:33;1.83;;;0.90;;
11988;SDS011;6054;50.966;7.094;2023-04-03T10:33:09;1.42;;;0.70;;
11988;SDS011;6054;50.966;7.094;2023-04-03T10:35:48;2.58;;;0.77;;
11988;SDS011;6054;50.966;7.094;2023-04-03T10:38:30;1.42;;;0.80;;
11988;SDS011;6054;50.966;7.094;2023-04-03T10:41:04;2.15;;;1.23;;
11988;SDS011;6054;50.966;7.094;2023-04-03T10:43:40;1.85;;;0.73;;
11988;SDS011;6054;50.966;7.094;2023-04-03T10:46:17;1.02;;;0.60;;
11988;SDS011;6054;50.966;7.094;2023-04-03T10:48:52;1.15;;;0.75;;
11988;SDS011;6054;50.966;7.094;2023-04-03T10:51:31;1.90;;;0.88;;
11988;SDS011;6054;50.966;7.094;2023-04-03T10:54:08;2.08;;;0.75;;
11988;SDS011;6054;50.966;7.094;2023-04-03T10:56:40;1.33;;;0.70;;
11988;SDS011;6054;50.966;7.094;2023-04-03T10:59:18;2.10;;;0.80;;
11988;SDS011;6054;50.966;7.094;2023-04-03T11:01:52;0.70;;;0.70;;
11988;SDS011;6054;50.966;7.094;2023-04-03T11:04:22;3.58;;;0.63;;
11988;SDS011;6054;50.966;7.094;2023-04-03T11:06:53;1.73;;;0.85;;
11988;SDS011;6054;50.966;7.094;2023-04-03T11:09:26;1.67;;;0.80;;
11988;SDS011;6054;50.966;7.094;2023-04-03T11:11:55;1.25;;;1.08;;
11988;SDS011;6054;50.966;7.094;2023-04-03T11:14:28;0.82;;;0.52;;
11988;SDS011;6054;50.966;7.094;2023-04-03T11:17:04;2.40;;;0.90;;
11988;SDS011;6054;50.966;7.094;2023-04-03T11:19:38;1.85;;;0.93;;
11988;SDS011;6054;50.966;7.094;2023-04-03T11:22:10;0.98;;;0.63;;
11988;SDS011;6054;50.966;7.094;2023-04-03T11:24:46;1.30;;;0.70;;
11988;SDS011;6054;50.966;7.094;2023-04-03T11:27:23;1.35;;;0.80;;
11988;SDS011;6054;50.966;7.094;2023-04-03T11:29:52;1.40;;;0.82;;
11988;SDS011;6054;50.966;7.094;2023-04-03T11:32:29;1.17;;;0.60;;
11988;SDS011;6054;50.966;7.094;2023-04-03T11:35:09;0.80;;;0.73;;
11988;SDS011;6054;50.966;7.094;2023-04-03T11:37:38;1.08;;;0.70;;
11988;SDS011;6054;50.966;7.094;2023-04-03T11:40:24;0.77;;;0.70;;
11988;SDS011;6054;50.966;7.094;2023-04-03T11:42:53;1.35;;;0.80;;
11988;SDS011;6054;50.966;7.094;2023-04-03T11:45:33;0.68;;;0.60;;
11988;SDS011;6054;50.966;7.094;2023-04-03T11:48:04;0.65;;;0.40;;
11988;SDS011;6054;50.966;7.094;2023-04-03T11:50:41;2.90;;;0.73;;
11988;SDS011;6054;50.966;7.094;2023-04-03T11:53:26;0.98;;;0.60;;
11988;SDS011;6054;50.966;7.094;2023-04-03T11:55:56;2.25;;;0.60;;
11988;SDS011;6054;50.966;7.094;2023-04-03T11:58:25;1.30;;;0.60;;
11988;SDS011;6054;50.966;7.094;2023-04-03T12:00:53;2.45;;;0.75;;
11988;SDS011;6054;50.966;7.094;2023-04-03T12:12:55;1.27;;;0.80;;
11988;SDS011;6054;50.966;7.094;2023-04-03T12:21:23;1.05;;;0.80;;
11988;SDS011;6054;50.966;7.094;2023-04-03T12:24:27;0.77;;;0.70;;
11988;SDS011;6054;50.966;7.094;2023-04-03T12:27:02;1.98;;;1.05;;
11988;SDS011;6054;50.966;7.094;2023-04-03T12:29:36;0.70;;;0.57;;
11988;SDS011;6054;50.966;7.094;2023-04-03T12:32:12;1.73;;;0.80;;
11988;SDS011;6054;50.966;7.094;2023-04-03T12:34:56;4.32;;;0.77;;
11988;SDS011;6054;50.966;7.094;2023-04-03T12:37:38;1.05;;;0.77;;
11988;SDS011;6054;50.966;7.094;2023-04-03T12:40:12;1.02;;;0.75;;
11988;SDS011;6054;50.966;7.094;2023-04-03T12:42:52;1.40;;;0.80;;
11988;SDS011;6054;50.966;7.094;2023-04-03T12:45:38;0.68;;;0.68;;
11988;SDS011;6054;50.966;7.094;2023-04-03T12:48:12;2.20;;;0.82;;
11988;SDS011;6054;50.966;7.094;2023-04-03T12:50:41;0.88;;;0.80;;
11988;SDS011;6054;50.966;7.094;2023-04-03T12:53:11;1.30;;;0.93;;
11988;SDS011;6054;50.966;7.094;2023-04-03T12:55:44;1.65;;;0.70;;
11988;SDS011;6054;50.966;7.094;2023-04-03T12:58:15;0.93;;;0.80;;
11988;SDS011;6054;50.966;7.094;2023-04-03T13:00:43;1.80;;;1.00;;
11988;SDS011;6054;50.966;7.094;2023-04-03T13:03:19;0.95;;;0.70;;
11988;SDS011;6054;50.966;7.094;2023-04-03T13:05:51;1.40;;;1.05;;
11988;SDS011;6054;50.966;7.094;2023-04-03T13:08:19;0.90;;;0.88;;
11988;SDS011;6054;50.966;7.094;2023-04-03T13:10:50;1.15;;;0.80;;
11988;SDS011;6054;50.966;7.094;2023-04-03T13:13:20;0.70;;;0.70;;
11988;SDS011;6054;50.966;7.094;2023-04-03T13:15:48;1.05;;;0.80;;
11988;SDS011;6054;50.966;7.094;2023-04-03T13:18:24;1.48;;;0.95;;
11988;SDS011;6054;50.966;7.094;2023-04-03T13:20:53;1.00;;;0.90;;
11988;SDS011;6054;50.966;7.094;2023-04-03T13:23:26;1.52;;;0.80;;
11988;SDS011;6054;50.966;7.094;2023-04-03T13:25:54;1.10;;;1.00;;
11988;SDS011;6054;50.966;7.094;2023-04-03T13:28:26;2.38;;;1.10;;
11988;SDS011;6054;50.966;7.094;2023-04-03T13:30:54;1.92;;;0.90;;
11988;SDS011;6054;50.966;7.094;2023-04-03T13:33:26;1.10;;;0.88;;
11988;SDS011;6054;50.966;7.094;2023-04-03T13:35:56;3.03;;;0.80;;
11988;SDS011;6054;50.966;7.094;2023-04-03T13:38:27;1.42;;;1.20;;
11988;SDS011;6054;50.966;7.094;2023-04-03T13:40:58;0.80;;;0.80;;
11988;SDS011;6054;50.966;7.094;2023-04-03T13:43:28;2.50;;;1.00;;
11988;SDS011;6054;50.966;7.094;2023-04-03T13:46:01;2.30;;;1.05;;
11988;SDS011;6054;50.966;7.094;2023-04-03T13:48:36;1.70;;;0.82;;
11988;SDS011;6054;50.966;7.094;2023-04-03T13:51:05;1.35;;;0.80;;
11988;SDS011;6054;50.966;7.094;2023-04-03T13:53:43;3.53;;;1.27;;
11988;SDS011;6054;50.966;7.094;2023-04-03T13:56:18;1.80;;;1.10;;
11988;SDS011;6054;50.966;7.094;2023-04-03T13:58:53;1.02;;;0.90;;
11988;SDS011;6054;50.966;7.094;2023-04-03T14:01:22;0.80;;;0.80;;
11988;SDS011;6054;50.966;7.094;2023-04-03T14:03:52;1.73;;;1.02;;
11988;SDS011;6054;50.966;7.094;2023-04-03T14:06:21;3.25;;;1.10;;
11988;SDS011;6054;50.966;7.094;2023-04-03T14:08:48;1.00;;;1.00;;
11988;SDS011;6054;50.966;7.094;2023-04-03T14:11:18;1.80;;;1.10;;
11988;SDS011;6054;50.966;7.094;2023-04-03T14:13:48;2.33;;;1.20;;
11988;SDS011;6054;50.966;7.094;2023-04-03T14:16:16;1.85;;;0.85;;
11988;SDS011;6054;50.966;7.094;2023-04-03T14:18:46;2.70;;;1.10;;
11988;SDS011;6054;50.966;7.094;2023-04-03T14:21:15;1.92;;;1.40;;
11988;SDS011;6054;50.966;7.094;2023-04-03T14:23:43;1.08;;;0.98;;
11988;SDS011;6054;50.966;7.094;2023-04-03T14:26:11;2.30;;;1.13;;
11988;SDS011;6054;50.966;7.094;2023-04-03T14:28:42;1.42;;;0.82;;
11988;SDS011;6054;50.966;7.094;2023-04-03T14:31:10;2.70;;;1.13;;
11988;SDS011;6054;50.966;7.094;2023-04-03T14:33:38;1.27;;;0.80;;
11988;SDS011;6054;50.966;7.094;2023-04-03T14:36:10;1.00;;;0.98;;
11988;SDS011;6054;50.966;7.094;2023-04-03T14:38:39;1.20;;;1.10;;
11988;SDS011;6054;50.966;7.094;2023-04-03T14:41:07;1.02;;;0.93;;
11988;SDS011;6054;50.966;7.094;2023-04-03T14:43:36;2.33;;;0.90;;
11988;SDS011;6054;50.966;7.094;2023-04-03T14:46:05;1.23;;;1.10;;
11988;SDS011;6054;50.966;7.094;2023-04-03T14:48:38;3.75;;;1.25;;
11988;SDS011;6054;50.966;7.094;2023-04-03T14:51:05;2.58;;;1.23;;
11988;SDS011;6054;50.966;7.094;2023-04-03T14:53:32;2.85;;;1.30;;
11988;SDS011;6054;50.966;7.094;2023-04-03T14:55:59;1.95;;;1.20;;
11988;SDS011;6054;50.966;7.094;2023-04-03T14:58:26;1.60;;;1.20;;
11988;SDS011;6054;50.966;7.094;2023-04-03T15:00:53;1.50;;;0.80;;
11988;SDS011;6054;50.966;7.094;2023-04-03T15:03:27;2.97;;;1.20;;
11988;SDS011;6054;50.966;7.094;2023-04-03T15:05:54;2.63;;;1.05;;
11988;SDS011;6054;50.966;7.094;2023-04-03T15:08:21;1.92;;;1.00;;
11988;SDS011;6054;50.966;7.094;2023-04-03T15:10:50;1.20;;;1.00;;
11988;SDS011;6054;50.966;7.094;2023-04-03T15:13:20;2.78;;;1.00;;
11988;SDS011;6054;50.966;7.094;2023-04-03T15:15:48;2.38;;;0.98;;
11988;SDS011;6054;50.966;7.094;2023-04-03T15:18:17;1.35;;;0.90;;
11988;SDS011;6054;50.966;7.094;2023-04-03T15:20:47;2.08;;;1.10;;
11988;SDS011;6054;50.966;7.094;2023-04-03T15:23:14;1.10;;;0.80;;
11988;SDS011;6054;50.966;7.094;2023-04-03T15:25:42;1.77;;;1.00;;
11988;SDS011;6054;50.966;7.094;2023-04-03T15:28:12;2.97;;;1.00;;
11988;SDS011;6054;50.966;7.094;2023-04-03T15:30:44;2.45;;;0.93;;
11988;SDS011;6054;50.966;7.094;2023-04-03T15:33:11;1.17;;;0.85;;
11988;SDS011;6054;50.966;7.094;2023-04-03T15:35:38;1.23;;;0.88;;